sensor_id;sensor_type;location;lat;lon;timestamp;temperature;humidity
27016;DHT22;14557;0.000;0.000;2023-02-01T00:01:43;19.50;54.00
27016;DHT22;14557;0.000;0.000;2023-02-01T00:04:09;19.50;54.00
27016;DHT22;14557;0.000;0.000;2023-02-01T00:06:34;19.40;53.90
27016;DHT22;14557;0.000;0.000;2023-02-01T00:09:00;19.40;53.90
27016;DHT22;14557;0.000;0.000;2023-02-01T00:11:26;19.40;53.70
27016;DHT22;14557;0.000;0.000;2023-02-01T00:13:53;19.40;53.70
27016;DHT22;14557;0.000;0.000;2023-02-01T00:16:21;19.30;53.50
27016;DHT22;14557;0.000;0.000;2023-02-01T00:18:49;19.30;53.50
27016;DHT22;14557;0.000;0.000;2023-02-01T00:21:18;19.40;53.40
27016;DHT22;14557;0.000;0.000;2023-02-01T00:23:44;19.30;53.30
27016;DHT22;14557;0.000;0.000;2023-02-01T00:26:36;19.30;53.30
27016;DHT22;14557;0.000;0.000;2023-02-01T00:29:04;19.30;53.30
27016;DHT22;14557;0.000;0.000;2023-02-01T00:31:30;19.30;53.30
27016;DHT22;14557;0.000;0.000;2023-02-01T00:33:56;19.30;53.30
27016;DHT22;14557;0.000;0.000;2023-02-01T00:36:22;19.30;53.20
27016;DHT22;14557;0.000;0.000;2023-02-01T00:38:47;19.30;53.20
27016;DHT22;14557;0.000;0.000;2023-02-01T00:41:18;19.30;53.30
27016;DHT22;14557;0.000;0.000;2023-02-01T00:43:45;19.20;53.20
27016;DHT22;14557;0.000;0.000;2023-02-01T00:46:13;19.20;53.20
27016;DHT22;14557;0.000;0.000;2023-02-01T00:48:39;19.20;53.10
27016;DHT22;14557;0.000;0.000;2023-02-01T00:51:07;19.20;53.10
27016;DHT22;14557;0.000;0.000;2023-02-01T00:53:34;19.20;53.00
27016;DHT22;14557;0.000;0.000;2023-02-01T00:56:00;19.20;52.90
27016;DHT22;14557;0.000;0.000;2023-02-01T00:58:26;19.20;52.80
27016;DHT22;14557;0.000;0.000;2023-02-01T01:01:10;19.20;52.60
27016;DHT22;14557;0.000;0.000;2023-02-01T01:03:39;19.10;52.40
27016;DHT22;14557;0.000;0.000;2023-02-01T01:06:08;19.10;52.40
27016;DHT22;14557;0.000;0.000;2023-02-01T01:08:34;19.10;52.60
27016;DHT22;14557;0.000;0.000;2023-02-01T01:11:12;19.10;52.50
27016;DHT22;14557;0.000;0.000;2023-02-01T01:13:38;19.10;52.50
27016;DHT22;14557;0.000;0.000;2023-02-01T01:16:05;19.10;52.70
27016;DHT22;14557;0.000;0.000;2023-02-01T01:18:32;19.10;52.80
27016;DHT22;14557;0.000;0.000;2023-02-01T01:20:59;19.00;52.60
27016;DHT22;14557;0.000;0.000;2023-02-01T01:23:25;19.00;52.60
27016;DHT22;14557;0.000;0.000;2023-02-01T01:25:51;19.00;52.40
27016;DHT22;14557;0.000;0.000;2023-02-01T01:28:17;18.90;52.10
27016;DHT22;14557;0.000;0.000;2023-02-01T01:30:43;18.90;51.80
27016;DHT22;14557;0.000;0.000;2023-02-01T01:33:09;18.90;52.00
27016;DHT22;14557;0.000;0.000;2023-02-01T01:35:35;18.90;52.80
27016;DHT22;14557;0.000;0.000;2023-02-01T01:38:01;18.90;52.80
27016;DHT22;14557;0.000;0.000;2023-02-01T01:40:29;18.90;52.30
27016;DHT22;14557;0.000;0.000;2023-02-01T01:42:55;18.90;52.00
27016;DHT22;14557;0.000;0.000;2023-02-01T01:45:29;18.90;52.10
27016;DHT22;14557;0.000;0.000;2023-02-01T01:48:01;18.80;51.90
27016;DHT22;14557;0.000;0.000;2023-02-01T01:50:37;18.80;52.00
27016;DHT22;14557;0.000;0.000;2023-02-01T01:53:07;18.80;52.00
27016;DHT22;14557;0.000;0.000;2023-02-01T01:55:37;18.80;51.90
27016;DHT22;14557;0.000;0.000;2023-02-01T01:58:13;18.80;52.00
27016;DHT22;14557;0.000;0.000;2023-02-01T02:00:41;18.70;52.10
27016;DHT22;14557;0.000;0.000;2023-02-01T02:05:46;18.70;51.90
27016;DHT22;14557;0.000;0.000;2023-02-01T02:08:14;18.70;52.10
27016;DHT22;14557;0.000;0.000;2023-02-01T02:10:40;18.70;52.10
27016;DHT22;14557;0.000;0.000;2023-02-01T02:13:24;18.60;52.00
27016;DHT22;14557;0.000;0.000;2023-02-01T02:42:46;18.50;51.90
27016;DHT22;14557;0.000;0.000;2023-02-01T02:45:39;18.50;51.90
27016;DHT22;14557;0.000;0.000;2023-02-01T02:51:12;18.40;52.00
27016;DHT22;14557;0.000;0.000;2023-02-01T02:53:59;18.40;52.00
27016;DHT22;14557;0.000;0.000;2023-02-01T02:56:44;18.40;52.00
27016;DHT22;14557;0.000;0.000;2023-02-01T02:59:29;18.40;52.10
27016;DHT22;14557;0.000;0.000;2023-02-01T03:02:15;18.40;52.00
27016;DHT22;14557;0.000;0.000;2023-02-01T03:04:59;18.40;52.00
27016;DHT22;14557;0.000;0.000;2023-02-01T03:12:54;18.40;52.00
27016;DHT22;14557;0.000;0.000;2023-02-01T03:18:01;18.40;52.00
27016;DHT22;14557;0.000;0.000;2023-02-01T03:20:29;18.30;51.80
27016;DHT22;14557;0.000;0.000;2023-02-01T03:22:56;18.40;51.90
27016;DHT22;14557;0.000;0.000;2023-02-01T03:25:29;18.40;52.00
27016;DHT22;14557;0.000;0.000;2023-02-01T03:28:07;18.40;52.00
27016;DHT22;14557;0.000;0.000;2023-02-01T03:30:38;18.40;52.00
27016;DHT22;14557;0.000;0.000;2023-02-01T03:33:13;18.30;52.00
27016;DHT22;14557;0.000;0.000;2023-02-01T03:39:04;18.30;51.80
27016;DHT22;14557;0.000;0.000;2023-02-01T03:42:28;18.30;51.80
27016;DHT22;14557;0.000;0.000;2023-02-01T03:44:41;18.30;51.80
27016;DHT22;14557;0.000;0.000;2023-02-01T03:47:18;18.30;51.90
27016;DHT22;14557;0.000;0.000;2023-02-01T03:49:55;18.30;51.80
27016;DHT22;14557;0.000;0.000;2023-02-01T03:52:30;18.30;51.70
27016;DHT22;14557;0.000;0.000;2023-02-01T03:54:58;18.30;51.70
27016;DHT22;14557;0.000;0.000;2023-02-01T03:57:32;18.30;51.60
27016;DHT22;14557;0.000;0.000;2023-02-01T04:00:20;18.30;51.80
27016;DHT22;14557;0.000;0.000;2023-02-01T04:02:47;18.20;51.70
27016;DHT22;14557;0.000;0.000;2023-02-01T04:05:13;18.20;51.50
27016;DHT22;14557;0.000;0.000;2023-02-01T04:07:39;18.20;51.60
27016;DHT22;14557;0.000;0.000;2023-02-01T04:10:06;18.20;51.50
27016;DHT22;14557;0.000;0.000;2023-02-01T04:12:32;18.20;51.50
27016;DHT22;14557;0.000;0.000;2023-02-01T04:14:58;18.20;51.60
27016;DHT22;14557;0.000;0.000;2023-02-01T04:17:24;18.20;51.70
27016;DHT22;14557;0.000;0.000;2023-02-01T04:19:49;18.20;51.60
27016;DHT22;14557;0.000;0.000;2023-02-01T04:22:15;18.20;51.60
27016;DHT22;14557;0.000;0.000;2023-02-01T04:24:41;18.10;51.50
27016;DHT22;14557;0.000;0.000;2023-02-01T04:27:07;18.10;51.70
27016;DHT22;14557;0.000;0.000;2023-02-01T04:29:33;18.10;52.20
27016;DHT22;14557;0.000;0.000;2023-02-01T04:31:59;18.10;51.70
27016;DHT22;14557;0.000;0.000;2023-02-01T04:34:24;18.10;51.70
27016;DHT22;14557;0.000;0.000;2023-02-01T04:36:51;18.10;51.80
27016;DHT22;14557;0.000;0.000;2023-02-01T04:39:17;18.10;51.70
27016;DHT22;14557;0.000;0.000;2023-02-01T04:41:42;18.10;51.70
27016;DHT22;14557;0.000;0.000;2023-02-01T04:44:16;18.10;51.70
27016;DHT22;14557;0.000;0.000;2023-02-01T04:46:42;18.10;51.80
27016;DHT22;14557;0.000;0.000;2023-02-01T04:49:10;18.10;51.80
27016;DHT22;14557;0.000;0.000;2023-02-01T04:51:36;18.00;52.00
27016;DHT22;14557;0.000;0.000;2023-02-01T04:54:02;18.00;52.00
27016;DHT22;14557;0.000;0.000;2023-02-01T04:56:27;18.00;52.10
27016;DHT22;14557;0.000;0.000;2023-02-01T04:58:53;18.00;52.20
27016;DHT22;14557;0.000;0.000;2023-02-01T05:01:19;18.00;52.20
27016;DHT22;14557;0.000;0.000;2023-02-01T05:03:45;18.00;52.20
27016;DHT22;14557;0.000;0.000;2023-02-01T05:06:10;18.00;52.20
27016;DHT22;14557;0.000;0.000;2023-02-01T05:08:36;17.90;52.20
27016;DHT22;14557;0.000;0.000;2023-02-01T05:11:02;18.00;52.20
27016;DHT22;14557;0.000;0.000;2023-02-01T05:13:30;17.90;52.00
27016;DHT22;14557;0.000;0.000;2023-02-01T05:16:15;17.90;51.90
27016;DHT22;14557;0.000;0.000;2023-02-01T05:18:41;17.90;51.90
27016;DHT22;14557;0.000;0.000;2023-02-01T05:21:07;17.90;52.00
27016;DHT22;14557;0.000;0.000;2023-02-01T05:23:33;17.90;51.90
27016;DHT22;14557;0.000;0.000;2023-02-01T05:26:18;17.90;51.90
27016;DHT22;14557;0.000;0.000;2023-02-01T05:28:44;17.90;52.00
27016;DHT22;14557;0.000;0.000;2023-02-01T05:31:11;17.90;51.90
27016;DHT22;14557;0.000;0.000;2023-02-01T05:33:36;17.90;51.70
27016;DHT22;14557;0.000;0.000;2023-02-01T05:36:03;17.90;51.80
27016;DHT22;14557;0.000;0.000;2023-02-01T05:38:29;17.80;51.60
27016;DHT22;14557;0.000;0.000;2023-02-01T05:40:57;17.80;51.60
27016;DHT22;14557;0.000;0.000;2023-02-01T05:43:23;17.80;51.70
27016;DHT22;14557;0.000;0.000;2023-02-01T05:45:49;17.90;51.70
27016;DHT22;14557;0.000;0.000;2023-02-01T05:48:14;17.90;51.60
27016;DHT22;14557;0.000;0.000;2023-02-01T05:50:40;17.90;51.90
27016;DHT22;14557;0.000;0.000;2023-02-01T05:53:06;17.80;51.70
27016;DHT22;14557;0.000;0.000;2023-02-01T05:55:32;17.80;52.30
27016;DHT22;14557;0.000;0.000;2023-02-01T05:57:57;17.80;51.70
27016;DHT22;14557;0.000;0.000;2023-02-01T06:00:23;17.80;51.70
27016;DHT22;14557;0.000;0.000;2023-02-01T06:02:49;17.80;51.70
27016;DHT22;14557;0.000;0.000;2023-02-01T06:05:15;17.80;51.70
27016;DHT22;14557;0.000;0.000;2023-02-01T06:07:41;17.70;51.60
27016;DHT22;14557;0.000;0.000;2023-02-01T06:10:08;17.70;51.80
27016;DHT22;14557;0.000;0.000;2023-02-01T06:12:34;17.70;52.00
27016;DHT22;14557;0.000;0.000;2023-02-01T06:15:00;17.70;52.10
27016;DHT22;14557;0.000;0.000;2023-02-01T06:17:26;17.70;52.20
27016;DHT22;14557;0.000;0.000;2023-02-01T06:19:51;17.70;52.20
27016;DHT22;14557;0.000;0.000;2023-02-01T06:22:17;17.70;52.20
27016;DHT22;14557;0.000;0.000;2023-02-01T06:24:43;17.60;52.20
27016;DHT22;14557;0.000;0.000;2023-02-01T06:27:09;17.70;52.30
27016;DHT22;14557;0.000;0.000;2023-02-01T06:29:35;17.60;52.30
27016;DHT22;14557;0.000;0.000;2023-02-01T06:32:01;17.60;52.40
27016;DHT22;14557;0.000;0.000;2023-02-01T06:34:27;17.60;52.40
27016;DHT22;14557;0.000;0.000;2023-02-01T06:36:53;17.60;52.30
27016;DHT22;14557;0.000;0.000;2023-02-01T06:39:20;17.60;52.30
27016;DHT22;14557;0.000;0.000;2023-02-01T06:41:50;17.60;52.30
27016;DHT22;14557;0.000;0.000;2023-02-01T06:44:16;17.60;52.20
27016;DHT22;14557;0.000;0.000;2023-02-01T06:46:42;17.60;52.00
27016;DHT22;14557;0.000;0.000;2023-02-01T06:49:08;17.60;52.10
27016;DHT22;14557;0.000;0.000;2023-02-01T06:51:34;17.60;52.10
27016;DHT22;14557;0.000;0.000;2023-02-01T06:54:00;17.60;52.10
27016;DHT22;14557;0.000;0.000;2023-02-01T06:56:26;17.60;52.20
27016;DHT22;14557;0.000;0.000;2023-02-01T06:58:52;17.60;52.10
27016;DHT22;14557;0.000;0.000;2023-02-01T07:01:18;17.60;52.20
27016;DHT22;14557;0.000;0.000;2023-02-01T07:03:51;17.60;52.10
27016;DHT22;14557;0.000;0.000;2023-02-01T07:06:17;17.50;52.00
27016;DHT22;14557;0.000;0.000;2023-02-01T07:08:44;17.60;52.10
27016;DHT22;14557;0.000;0.000;2023-02-01T07:11:12;17.60;52.10
27016;DHT22;14557;0.000;0.000;2023-02-01T07:13:38;17.50;52.10
27016;DHT22;14557;0.000;0.000;2023-02-01T07:16:08;17.50;52.20
27016;DHT22;14557;0.000;0.000;2023-02-01T07:18:34;17.50;52.20
27016;DHT22;14557;0.000;0.000;2023-02-01T07:21:00;17.50;52.30
27016;DHT22;14557;0.000;0.000;2023-02-01T07:23:26;17.50;53.60
27016;DHT22;14557;0.000;0.000;2023-02-01T07:25:54;17.60;56.40
27016;DHT22;14557;0.000;0.000;2023-02-01T07:28:20;17.60;55.30
27016;DHT22;14557;0.000;0.000;2023-02-01T07:30:46;17.60;54.50
27016;DHT22;14557;0.000;0.000;2023-02-01T07:33:25;17.60;54.60
27016;DHT22;14557;0.000;0.000;2023-02-01T07:35:52;17.60;54.10
27016;DHT22;14557;0.000;0.000;2023-02-01T07:38:18;17.60;53.90
27016;DHT22;14557;0.000;0.000;2023-02-01T07:40:45;17.50;53.70
27016;DHT22;14557;0.000;0.000;2023-02-01T07:43:10;17.50;53.80
27016;DHT22;14557;0.000;0.000;2023-02-01T07:45:36;17.50;53.70
27016;DHT22;14557;0.000;0.000;2023-02-01T07:48:03;17.50;54.20
27016;DHT22;14557;0.000;0.000;2023-02-01T07:50:29;17.60;55.70
27016;DHT22;14557;0.000;0.000;2023-02-01T07:52:55;17.60;55.00
27016;DHT22;14557;0.000;0.000;2023-02-01T07:55:23;17.60;54.70
27016;DHT22;14557;0.000;0.000;2023-02-01T07:57:50;17.60;55.00
27016;DHT22;14557;0.000;0.000;2023-02-01T08:00:16;17.60;56.50
27016;DHT22;14557;0.000;0.000;2023-02-01T08:03:00;17.60;62.70
27016;DHT22;14557;0.000;0.000;2023-02-01T08:05:27;17.70;64.40
27016;DHT22;14557;0.000;0.000;2023-02-01T08:07:53;17.70;59.30
27016;DHT22;14557;0.000;0.000;2023-02-01T08:10:19;17.70;58.50
27016;DHT22;14557;0.000;0.000;2023-02-01T08:12:45;17.70;57.80
27016;DHT22;14557;0.000;0.000;2023-02-01T08:15:17;17.70;56.90
27016;DHT22;14557;0.000;0.000;2023-02-01T08:17:47;17.70;56.20
27016;DHT22;14557;0.000;0.000;2023-02-01T08:20:13;17.60;55.70
27016;DHT22;14557;0.000;0.000;2023-02-01T08:22:39;17.60;55.30
27016;DHT22;14557;0.000;0.000;2023-02-01T08:25:06;17.60;55.10
27016;DHT22;14557;0.000;0.000;2023-02-01T08:27:35;17.70;58.80
27016;DHT22;14557;0.000;0.000;2023-02-01T08:30:01;17.70;57.20
27016;DHT22;14557;0.000;0.000;2023-02-01T08:32:27;17.70;56.70
27016;DHT22;14557;0.000;0.000;2023-02-01T08:34:53;17.90;58.90
27016;DHT22;14557;0.000;0.000;2023-02-01T08:37:19;18.30;62.00
27016;DHT22;14557;0.000;0.000;2023-02-01T08:39:45;18.40;60.30
27016;DHT22;14557;0.000;0.000;2023-02-01T08:42:12;18.40;57.40
27016;DHT22;14557;0.000;0.000;2023-02-01T08:44:57;18.40;58.10
27016;DHT22;14557;0.000;0.000;2023-02-01T08:47:23;18.40;56.60
27016;DHT22;14557;0.000;0.000;2023-02-01T08:49:49;18.40;56.60
27016;DHT22;14557;0.000;0.000;2023-02-01T08:52:14;18.30;56.30
27016;DHT22;14557;0.000;0.000;2023-02-01T08:54:40;18.30;56.00
27016;DHT22;14557;0.000;0.000;2023-02-01T08:57:07;18.30;55.90
27016;DHT22;14557;0.000;0.000;2023-02-01T08:59:33;18.30;55.70
27016;DHT22;14557;0.000;0.000;2023-02-01T09:01:58;18.30;55.60
27016;DHT22;14557;0.000;0.000;2023-02-01T09:04:24;18.20;55.50
27016;DHT22;14557;0.000;0.000;2023-02-01T09:06:50;18.20;55.50
27016;DHT22;14557;0.000;0.000;2023-02-01T09:09:15;18.20;56.00
27016;DHT22;14557;0.000;0.000;2023-02-01T09:11:41;18.20;55.20
27016;DHT22;14557;0.000;0.000;2023-02-01T09:14:07;18.20;55.60
27016;DHT22;14557;0.000;0.000;2023-02-01T09:16:32;18.30;56.30
27016;DHT22;14557;0.000;0.000;2023-02-01T09:18:58;18.20;56.30
27016;DHT22;14557;0.000;0.000;2023-02-01T09:21:24;18.30;56.00
27016;DHT22;14557;0.000;0.000;2023-02-01T09:23:52;18.30;55.80
27016;DHT22;14557;0.000;0.000;2023-02-01T09:26:18;18.30;55.30
27016;DHT22;14557;0.000;0.000;2023-02-01T09:28:44;18.40;55.20
27016;DHT22;14557;0.000;0.000;2023-02-01T09:31:09;18.40;55.70
27016;DHT22;14557;0.000;0.000;2023-02-01T09:33:35;18.40;56.00
27016;DHT22;14557;0.000;0.000;2023-02-01T09:36:03;18.50;58.70
27016;DHT22;14557;0.000;0.000;2023-02-01T09:38:30;18.50;57.60
27016;DHT22;14557;0.000;0.000;2023-02-01T09:40:58;18.60;57.20
27016;DHT22;14557;0.000;0.000;2023-02-01T09:46:32;18.60;57.50
27016;DHT22;14557;0.000;0.000;2023-02-01T09:49:20;18.60;56.60
27016;DHT22;14557;0.000;0.000;2023-02-01T09:51:49;18.60;56.40
27016;DHT22;14557;0.000;0.000;2023-02-01T09:54:44;18.70;55.80
27016;DHT22;14557;0.000;0.000;2023-02-01T09:57:28;18.70;56.10
27016;DHT22;14557;0.000;0.000;2023-02-01T10:00:13;18.80;55.40
27016;DHT22;14557;0.000;0.000;2023-02-01T10:02:41;18.80;55.20
27016;DHT22;14557;0.000;0.000;2023-02-01T10:05:14;18.80;56.00
27016;DHT22;14557;0.000;0.000;2023-02-01T10:08:04;18.90;56.70
27016;DHT22;14557;0.000;0.000;2023-02-01T10:10:48;18.90;56.80
27016;DHT22;14557;0.000;0.000;2023-02-01T10:16:29;19.00;57.60
27016;DHT22;14557;0.000;0.000;2023-02-01T10:19:06;19.00;57.60
27016;DHT22;14557;0.000;0.000;2023-02-01T10:22:06;19.00;57.70
27016;DHT22;14557;0.000;0.000;2023-02-01T10:27:35;19.10;58.20
27016;DHT22;14557;0.000;0.000;2023-02-01T10:30:13;19.10;58.00
27016;DHT22;14557;0.000;0.000;2023-02-01T10:32:40;19.10;58.60
27016;DHT22;14557;0.000;0.000;2023-02-01T10:35:16;19.10;58.50
27016;DHT22;14557;0.000;0.000;2023-02-01T10:37:43;19.20;59.70
27016;DHT22;14557;0.000;0.000;2023-02-01T10:40:24;19.20;60.40
27016;DHT22;14557;0.000;0.000;2023-02-01T10:42:59;19.20;60.90
27016;DHT22;14557;0.000;0.000;2023-02-01T10:45:28;19.20;60.10
27016;DHT22;14557;0.000;0.000;2023-02-01T10:47:57;19.30;59.10
27016;DHT22;14557;0.000;0.000;2023-02-01T10:53:30;19.50;60.70
27016;DHT22;14557;0.000;0.000;2023-02-01T10:55:56;19.50;60.60
27016;DHT22;14557;0.000;0.000;2023-02-01T10:58:30;19.50;62.20
27016;DHT22;14557;0.000;0.000;2023-02-01T11:01:06;19.50;62.30
27016;DHT22;14557;0.000;0.000;2023-02-01T11:03:44;19.50;61.10
27016;DHT22;14557;0.000;0.000;2023-02-01T11:08:55;19.60;62.10
27016;DHT22;14557;0.000;0.000;2023-02-01T11:11:21;19.60;61.10
27016;DHT22;14557;0.000;0.000;2023-02-01T11:13:56;19.60;60.10
27016;DHT22;14557;0.000;0.000;2023-02-01T11:16:35;19.70;59.70
27016;DHT22;14557;0.000;0.000;2023-02-01T11:19:01;19.70;60.20
27016;DHT22;14557;0.000;0.000;2023-02-01T11:21:27;19.70;59.80
27016;DHT22;14557;0.000;0.000;2023-02-01T11:23:53;19.70;59.30
27016;DHT22;14557;0.000;0.000;2023-02-01T11:26:24;19.70;59.30
27016;DHT22;14557;0.000;0.000;2023-02-01T11:28:55;19.80;59.50
27016;DHT22;14557;0.000;0.000;2023-02-01T11:31:24;19.80;58.90
27016;DHT22;14557;0.000;0.000;2023-02-01T11:33:53;19.80;58.50
27016;DHT22;14557;0.000;0.000;2023-02-01T11:36:32;19.80;58.60
27016;DHT22;14557;0.000;0.000;2023-02-01T11:44:32;19.90;58.00
27016;DHT22;14557;0.000;0.000;2023-02-01T11:47:27;19.90;57.90
27016;DHT22;14557;0.000;0.000;2023-02-01T11:49:58;19.90;57.50
27016;DHT22;14557;0.000;0.000;2023-02-01T11:55:37;19.90;57.40
27016;DHT22;14557;0.000;0.000;2023-02-01T12:04:08;19.90;56.70
27016;DHT22;14557;0.000;0.000;2023-02-01T12:06:51;19.90;56.80
27016;DHT22;14557;0.000;0.000;2023-02-01T12:23:16;19.90;56.80
27016;DHT22;14557;0.000;0.000;2023-02-01T12:26:12;19.90;56.30
27016;DHT22;14557;0.000;0.000;2023-02-01T12:29:01;20.00;58.30
27016;DHT22;14557;0.000;0.000;2023-02-01T12:39:57;20.20;62.90
27016;DHT22;14557;0.000;0.000;2023-02-01T12:45:34;20.30;67.10
27016;DHT22;14557;0.000;0.000;2023-02-01T12:50:46;20.40;68.10
27016;DHT22;14557;0.000;0.000;2023-02-01T12:54:04;20.40;72.20
27016;DHT22;14557;0.000;0.000;2023-02-01T12:56:08;20.50;68.50
27016;DHT22;14557;0.000;0.000;2023-02-01T12:58:52;20.50;61.20
27016;DHT22;14557;0.000;0.000;2023-02-01T13:06:47;20.50;56.70
27016;DHT22;14557;0.000;0.000;2023-02-01T13:09:55;20.50;56.40
27016;DHT22;14557;0.000;0.000;2023-02-01T13:12:31;20.50;56.10
27016;DHT22;14557;0.000;0.000;2023-02-01T13:17:32;20.50;55.20
27016;DHT22;14557;0.000;0.000;2023-02-01T13:20:16;20.50;55.30
27016;DHT22;14557;0.000;0.000;2023-02-01T13:22:54;20.50;55.00
27016;DHT22;14557;0.000;0.000;2023-02-01T13:28:15;20.50;54.80
27016;DHT22;14557;0.000;0.000;2023-02-01T13:42:25;20.30;54.80
27016;DHT22;14557;0.000;0.000;2023-02-01T13:45:04;20.30;54.90
27016;DHT22;14557;0.000;0.000;2023-02-01T13:47:34;20.30;55.40
27016;DHT22;14557;0.000;0.000;2023-02-01T13:50:13;20.30;63.50
27016;DHT22;14557;0.000;0.000;2023-02-01T13:52:50;20.30;61.90
27016;DHT22;14557;0.000;0.000;2023-02-01T13:57:47;20.30;57.00
27016;DHT22;14557;0.000;0.000;2023-02-01T14:00:37;20.30;56.40
27016;DHT22;14557;0.000;0.000;2023-02-01T14:10:49;20.20;55.30
27016;DHT22;14557;0.000;0.000;2023-02-01T14:13:40;20.20;56.40
27016;DHT22;14557;0.000;0.000;2023-02-01T14:24:32;20.20;54.50
27016;DHT22;14557;0.000;0.000;2023-02-01T14:26:49;20.20;54.60
27016;DHT22;14557;0.000;0.000;2023-02-01T14:32:19;20.20;54.60
27016;DHT22;14557;0.000;0.000;2023-02-01T14:34:52;20.20;54.60
27016;DHT22;14557;0.000;0.000;2023-02-01T14:39:56;20.20;54.70
27016;DHT22;14557;0.000;0.000;2023-02-01T14:50:46;20.10;54.80
27016;DHT22;14557;0.000;0.000;2023-02-01T14:56:04;20.10;55.00
27016;DHT22;14557;0.000;0.000;2023-02-01T15:01:28;20.00;54.10
27016;DHT22;14557;0.000;0.000;2023-02-01T15:04:13;19.90;53.90
27016;DHT22;14557;0.000;0.000;2023-02-01T15:07:03;19.90;53.90
27016;DHT22;14557;0.000;0.000;2023-02-01T15:09:46;19.90;54.10
27016;DHT22;14557;0.000;0.000;2023-02-01T15:14:48;19.90;54.50
27016;DHT22;14557;0.000;0.000;2023-02-01T15:19:56;19.80;54.70
27016;DHT22;14557;0.000;0.000;2023-02-01T15:22:23;19.80;54.50
27016;DHT22;14557;0.000;0.000;2023-02-01T15:24:59;19.80;54.90
27016;DHT22;14557;0.000;0.000;2023-02-01T15:27:26;19.80;56.70
27016;DHT22;14557;0.000;0.000;2023-02-01T15:29:53;19.80;55.90
27016;DHT22;14557;0.000;0.000;2023-02-01T15:32:33;19.80;55.90
27016;DHT22;14557;0.000;0.000;2023-02-01T15:35:00;19.80;55.70
27016;DHT22;14557;0.000;0.000;2023-02-01T15:37:27;19.80;55.50
27016;DHT22;14557;0.000;0.000;2023-02-01T15:42:49;19.80;56.20
27016;DHT22;14557;0.000;0.000;2023-02-01T15:45:20;19.80;55.80
27016;DHT22;14557;0.000;0.000;2023-02-01T15:47:51;19.80;55.30
27016;DHT22;14557;0.000;0.000;2023-02-01T15:50:19;19.70;55.00
27016;DHT22;14557;0.000;0.000;2023-02-01T15:52:48;19.70;55.10
27016;DHT22;14557;0.000;0.000;2023-02-01T15:57:56;19.70;55.80
27016;DHT22;14557;0.000;0.000;2023-02-01T16:00:28;19.70;55.90
27016;DHT22;14557;0.000;0.000;2023-02-01T16:03:00;19.70;55.70
27016;DHT22;14557;0.000;0.000;2023-02-01T16:05:37;19.70;55.50
27016;DHT22;14557;0.000;0.000;2023-02-01T16:08:20;19.70;55.30
27016;DHT22;14557;0.000;0.000;2023-02-01T16:10:49;19.70;55.10
27016;DHT22;14557;0.000;0.000;2023-02-01T16:13:17;19.70;55.00
27016;DHT22;14557;0.000;0.000;2023-02-01T16:15:44;19.70;55.00
27016;DHT22;14557;0.000;0.000;2023-02-01T16:18:11;19.70;55.00
27016;DHT22;14557;0.000;0.000;2023-02-01T16:20:38;19.70;55.20
27016;DHT22;14557;0.000;0.000;2023-02-01T16:23:05;19.60;55.30
27016;DHT22;14557;0.000;0.000;2023-02-01T16:25:32;19.60;55.20
27016;DHT22;14557;0.000;0.000;2023-02-01T16:27:57;19.60;55.10
27016;DHT22;14557;0.000;0.000;2023-02-01T16:30:24;19.60;55.10
27016;DHT22;14557;0.000;0.000;2023-02-01T16:32:59;19.60;55.40
27016;DHT22;14557;0.000;0.000;2023-02-01T16:35:35;19.60;55.40
27016;DHT22;14557;0.000;0.000;2023-02-01T16:38:10;19.60;55.10
27016;DHT22;14557;0.000;0.000;2023-02-01T16:40:42;19.60;55.10
27016;DHT22;14557;0.000;0.000;2023-02-01T16:43:13;19.60;55.00
27016;DHT22;14557;0.000;0.000;2023-02-01T16:45:40;19.50;55.30
27016;DHT22;14557;0.000;0.000;2023-02-01T16:48:07;19.50;55.50
27016;DHT22;14557;0.000;0.000;2023-02-01T16:50:33;19.50;55.60
27016;DHT22;14557;0.000;0.000;2023-02-01T16:53:00;19.50;55.80
27016;DHT22;14557;0.000;0.000;2023-02-01T16:55:26;19.50;55.90
27016;DHT22;14557;0.000;0.000;2023-02-01T16:57:53;19.50;55.80
27016;DHT22;14557;0.000;0.000;2023-02-01T17:00:19;19.50;55.90
27016;DHT22;14557;0.000;0.000;2023-02-01T17:02:45;19.40;55.80
27016;DHT22;14557;0.000;0.000;2023-02-01T17:05:11;19.40;55.90
27016;DHT22;14557;0.000;0.000;2023-02-01T17:07:38;19.40;55.90
27016;DHT22;14557;0.000;0.000;2023-02-01T17:10:05;19.40;55.70
27016;DHT22;14557;0.000;0.000;2023-02-01T17:12:32;19.40;55.60
27016;DHT22;14557;0.000;0.000;2023-02-01T17:14:59;19.40;55.60
27016;DHT22;14557;0.000;0.000;2023-02-01T17:17:30;19.40;55.50
27016;DHT22;14557;0.000;0.000;2023-02-01T17:19:57;19.40;55.30
27016;DHT22;14557;0.000;0.000;2023-02-01T17:22:23;19.40;55.00
27016;DHT22;14557;0.000;0.000;2023-02-01T17:24:49;19.40;55.10
27016;DHT22;14557;0.000;0.000;2023-02-01T17:27:17;19.40;55.20
27016;DHT22;14557;0.000;0.000;2023-02-01T17:29:43;19.40;55.40
27016;DHT22;14557;0.000;0.000;2023-02-01T17:32:22;19.40;55.50
27016;DHT22;14557;0.000;0.000;2023-02-01T17:34:49;19.40;56.20
27016;DHT22;14557;0.000;0.000;2023-02-01T17:37:27;19.40;56.30
27016;DHT22;14557;0.000;0.000;2023-02-01T17:39:54;19.40;56.10
27016;DHT22;14557;0.000;0.000;2023-02-01T17:42:19;19.50;56.40
27016;DHT22;14557;0.000;0.000;2023-02-01T17:44:45;19.50;56.50
27016;DHT22;14557;0.000;0.000;2023-02-01T17:47:11;19.50;56.20
27016;DHT22;14557;0.000;0.000;2023-02-01T17:49:37;19.50;56.10
27016;DHT22;14557;0.000;0.000;2023-02-01T17:52:04;19.50;59.30
27016;DHT22;14557;0.000;0.000;2023-02-01T17:54:30;19.50;58.90
27016;DHT22;14557;0.000;0.000;2023-02-01T17:56:55;19.50;58.40
27016;DHT22;14557;0.000;0.000;2023-02-01T17:59:25;19.50;57.10
27016;DHT22;14557;0.000;0.000;2023-02-01T18:01:51;19.50;57.30
27016;DHT22;14557;0.000;0.000;2023-02-01T18:04:18;19.60;57.60
27016;DHT22;14557;0.000;0.000;2023-02-01T18:06:44;19.60;57.60
27016;DHT22;14557;0.000;0.000;2023-02-01T18:09:10;19.60;57.30
27016;DHT22;14557;0.000;0.000;2023-02-01T18:11:36;19.70;57.10
27016;DHT22;14557;0.000;0.000;2023-02-01T18:14:02;19.70;57.60
27016;DHT22;14557;0.000;0.000;2023-02-01T18:16:33;19.70;58.80
27016;DHT22;14557;0.000;0.000;2023-02-01T18:18:59;19.70;59.90
27016;DHT22;14557;0.000;0.000;2023-02-01T18:21:35;19.70;60.50
27016;DHT22;14557;0.000;0.000;2023-02-01T18:24:01;19.70;59.30
27016;DHT22;14557;0.000;0.000;2023-02-01T18:26:28;19.80;60.80
27016;DHT22;14557;0.000;0.000;2023-02-01T18:28:54;19.90;60.10
27016;DHT22;14557;0.000;0.000;2023-02-01T18:31:23;19.90;60.50
27016;DHT22;14557;0.000;0.000;2023-02-01T18:33:50;19.90;61.10
27016;DHT22;14557;0.000;0.000;2023-02-01T18:36:16;20.00;62.10
27016;DHT22;14557;0.000;0.000;2023-02-01T18:38:42;20.00;62.00
27016;DHT22;14557;0.000;0.000;2023-02-01T18:41:15;20.10;62.40
27016;DHT22;14557;0.000;0.000;2023-02-01T18:43:42;20.10;62.30
27016;DHT22;14557;0.000;0.000;2023-02-01T18:46:11;20.20;62.00
27016;DHT22;14557;0.000;0.000;2023-02-01T18:48:37;20.20;61.70
27016;DHT22;14557;0.000;0.000;2023-02-01T18:51:03;20.20;62.10
27016;DHT22;14557;0.000;0.000;2023-02-01T18:53:29;20.20;62.00
27016;DHT22;14557;0.000;0.000;2023-02-01T18:55:58;20.30;61.90